sensor_id;sensor_type;location;lat;lon;timestamp;P1;durP1;ratioP1;P2;durP2;ratioP2
17259;SDS011;8746;49.230;9.220;2023-04-25T00:01:03;5.37;;;4.87;;
17259;SDS011;8746;49.230;9.220;2023-04-25T00:03:29;4.97;;;4.57;;
17259;SDS011;8746;49.230;9.220;2023-04-25T00:05:55;4.97;;;4.47;;
17259;SDS011;8746;49.230;9.220;2023-04-25T00:08:21;4.47;;;4.07;;
17259;SDS011;8746;49.230;9.220;2023-04-25T00:10:47;4.57;;;3.87;;
17259;SDS011;8746;49.230;9.220;2023-04-25T00:13:14;4.67;;;4.27;;
17259;SDS011;8746;49.230;9.220;2023-04-25T00:15:39;5.67;;;4.10;;
17259;SDS011;8746;49.230;9.220;2023-04-25T00:18:06;4.60;;;4.20;;
17259;SDS011;8746;49.230;9.220;2023-04-25T00:20:32;4.70;;;4.30;;
17259;SDS011;8746;49.230;9.220;2023-04-25T00:22:58;4.73;;;4.23;;
17259;SDS011;8746;49.230;9.220;2023-04-25T00:25:23;5.57;;;4.60;;
17259;SDS011;8746;49.230;9.220;2023-04-25T00:27:48;4.83;;;4.07;;
17259;SDS011;8746;49.230;9.220;2023-04-25T00:30:14;4.90;;;4.50;;
17259;SDS011;8746;49.230;9.220;2023-04-25T00:32:39;5.50;;;5.00;;
17259;SDS011;8746;49.230;9.220;2023-04-25T00:35:05;4.70;;;4.20;;
17259;SDS011;8746;49.230;9.220;2023-04-25T00:37:30;5.43;;;4.60;;
17259;SDS011;8746;49.230;9.220;2023-04-25T00:39:57;5.27;;;4.10;;
17259;SDS011;8746;49.230;9.220;2023-04-25T00:42:23;6.30;;;4.30;;
17259;SDS011;8746;49.230;9.220;2023-04-25T00:44:50;4.83;;;4.43;;
17259;SDS011;8746;49.230;9.220;2023-04-25T00:47:17;4.93;;;4.43;;
17259;SDS011;8746;49.230;9.220;2023-04-25T00:49:42;4.87;;;4.37;;
17259;SDS011;8746;49.230;9.220;2023-04-25T00:52:08;4.17;;;3.83;;
17259;SDS011;8746;49.230;9.220;2023-04-25T00:54:33;6.37;;;3.83;;
17259;SDS011;8746;49.230;9.220;2023-04-25T00:56:58;4.33;;;3.93;;
17259;SDS011;8746;49.230;9.220;2023-04-25T00:59:25;4.27;;;3.87;;
17259;SDS011;8746;49.230;9.220;2023-04-25T01:01:52;4.53;;;3.97;;
17259;SDS011;8746;49.230;9.220;2023-04-25T01:04:17;3.80;;;3.50;;
17259;SDS011;8746;49.230;9.220;2023-04-25T01:06:43;4.33;;;3.53;;
17259;SDS011;8746;49.230;9.220;2023-04-25T01:09:09;4.23;;;3.60;;
17259;SDS011;8746;49.230;9.220;2023-04-25T01:11:35;4.30;;;4.00;;
17259;SDS011;8746;49.230;9.220;2023-04-25T01:14:00;4.00;;;3.60;;
17259;SDS011;8746;49.230;9.220;2023-04-25T01:16:26;4.13;;;3.73;;
17259;SDS011;8746;49.230;9.220;2023-04-25T01:18:52;4.53;;;4.13;;
17259;SDS011;8746;49.230;9.220;2023-04-25T01:21:19;4.17;;;3.60;;
17259;SDS011;8746;49.230;9.220;2023-04-25T01:23:45;4.93;;;4.23;;
17259;SDS011;8746;49.230;9.220;2023-04-25T01:26:11;4.53;;;4.13;;
17259;SDS011;8746;49.230;9.220;2023-04-25T01:28:37;4.77;;;4.30;;
17259;SDS011;8746;49.230;9.220;2023-04-25T01:31:07;4.47;;;4.07;;
17259;SDS011;8746;49.230;9.220;2023-04-25T01:33:34;4.50;;;4.10;;
17259;SDS011;8746;49.230;9.220;2023-04-25T01:35:59;4.50;;;4.10;;
17259;SDS011;8746;49.230;9.220;2023-04-25T01:38:25;5.03;;;4.53;;
17259;SDS011;8746;49.230;9.220;2023-04-25T01:40:50;4.47;;;4.07;;
17259;SDS011;8746;49.230;9.220;2023-04-25T01:43:17;4.67;;;4.23;;
17259;SDS011;8746;49.230;9.220;2023-04-25T01:45:42;4.20;;;3.80;;
17259;SDS011;8746;49.230;9.220;2023-04-25T01:48:09;5.73;;;4.27;;
17259;SDS011;8746;49.230;9.220;2023-04-25T01:50:36;5.13;;;4.50;;
17259;SDS011;8746;49.230;9.220;2023-04-25T01:53:02;5.20;;;4.43;;
17259;SDS011;8746;49.230;9.220;2023-04-25T01:55:29;5.20;;;4.70;;
17259;SDS011;8746;49.230;9.220;2023-04-25T01:57:54;4.50;;;4.10;;
17259;SDS011;8746;49.230;9.220;2023-04-25T02:00:20;5.70;;;5.10;;
17259;SDS011;8746;49.230;9.220;2023-04-25T02:02:45;5.30;;;4.80;;
17259;SDS011;8746;49.230;9.220;2023-04-25T02:05:11;5.33;;;4.77;;
17259;SDS011;8746;49.230;9.220;2023-04-25T02:07:36;5.67;;;4.97;;
17259;SDS011;8746;49.230;9.220;2023-04-25T02:10:02;5.70;;;5.20;;
17259;SDS011;8746;49.230;9.220;2023-04-25T02:12:28;5.80;;;5.20;;
17259;SDS011;8746;49.230;9.220;2023-04-25T02:14:53;5.60;;;5.10;;
17259;SDS011;8746;49.230;9.220;2023-04-25T02:17:19;5.17;;;4.73;;
17259;SDS011;8746;49.230;9.220;2023-04-25T02:19:46;5.63;;;5.07;;
17259;SDS011;8746;49.230;9.220;2023-04-25T02:22:12;5.93;;;5.27;;
17259;SDS011;8746;49.230;9.220;2023-04-25T02:24:38;5.93;;;5.37;;
17259;SDS011;8746;49.230;9.220;2023-04-25T02:27:03;5.80;;;5.23;;
17259;SDS011;8746;49.230;9.220;2023-04-25T02:29:29;5.77;;;5.27;;
17259;SDS011;8746;49.230;9.220;2023-04-25T02:31:54;5.90;;;5.00;;
17259;SDS011;8746;49.230;9.220;2023-04-25T02:34:20;6.23;;;5.27;;
17259;SDS011;8746;49.230;9.220;2023-04-25T02:36:45;6.70;;;5.53;;
17259;SDS011;8746;49.230;9.220;2023-04-25T02:39:11;5.93;;;5.33;;
17259;SDS011;8746;49.230;9.220;2023-04-25T02:41:36;5.47;;;4.97;;
17259;SDS011;8746;49.230;9.220;2023-04-25T02:44:02;5.80;;;5.20;;
17259;SDS011;8746;49.230;9.220;2023-04-25T02:46:27;5.97;;;5.30;;
17259;SDS011;8746;49.230;9.220;2023-04-25T02:48:52;5.77;;;5.23;;
17259;SDS011;8746;49.230;9.220;2023-04-25T02:51:18;7.23;;;5.40;;
17259;SDS011;8746;49.230;9.220;2023-04-25T02:53:43;5.60;;;5.00;;
17259;SDS011;8746;49.230;9.220;2023-04-25T02:56:09;5.90;;;5.37;;
17259;SDS011;8746;49.230;9.220;2023-04-25T02:58:34;5.80;;;5.30;;
17259;SDS011;8746;49.230;9.220;2023-04-25T03:00:59;6.30;;;5.80;;
17259;SDS011;8746;49.230;9.220;2023-04-25T03:03:25;7.07;;;6.37;;
17259;SDS011;8746;49.230;9.220;2023-04-25T03:05:51;7.60;;;6.17;;
17259;SDS011;8746;49.230;9.220;2023-04-25T03:08:17;9.00;;;6.50;;
17259;SDS011;8746;49.230;9.220;2023-04-25T03:10:43;6.70;;;6.10;;
17259;SDS011;8746;49.230;9.220;2023-04-25T03:13:09;7.97;;;6.20;;
17259;SDS011;8746;49.230;9.220;2023-04-25T03:15:35;6.07;;;5.47;;
17259;SDS011;8746;49.230;9.220;2023-04-25T03:18:01;8.57;;;5.77;;
17259;SDS011;8746;49.230;9.220;2023-04-25T03:20:26;6.17;;;5.57;;
17259;SDS011;8746;49.230;9.220;2023-04-25T03:22:52;6.57;;;5.60;;
17259;SDS011;8746;49.230;9.220;2023-04-25T03:25:17;6.20;;;5.20;;
17259;SDS011;8746;49.230;9.220;2023-04-25T03:27:43;6.33;;;5.50;;
17259;SDS011;8746;49.230;9.220;2023-04-25T03:30:08;5.67;;;5.07;;
17259;SDS011;8746;49.230;9.220;2023-04-25T03:32:34;7.00;;;6.30;;
17259;SDS011;8746;49.230;9.220;2023-04-25T03:35:00;9.23;;;7.60;;
17259;SDS011;8746;49.230;9.220;2023-04-25T03:37:25;8.67;;;7.23;;
17259;SDS011;8746;49.230;9.220;2023-04-25T03:39:51;7.47;;;5.87;;
17259;SDS011;8746;49.230;9.220;2023-04-25T03:42:16;6.20;;;5.60;;
17259;SDS011;8746;49.230;9.220;2023-04-25T03:44:42;6.43;;;5.37;;
17259;SDS011;8746;49.230;9.220;2023-04-25T03:47:07;6.40;;;5.70;;
17259;SDS011;8746;49.230;9.220;2023-04-25T03:49:33;7.33;;;6.27;;
17259;SDS011;8746;49.230;9.220;2023-04-25T03:51:59;6.63;;;6.03;;
17259;SDS011;8746;49.230;9.220;2023-04-25T03:54:25;7.13;;;5.83;;
17259;SDS011;8746;49.230;9.220;2023-04-25T03:56:50;6.70;;;6.00;;
17259;SDS011;8746;49.230;9.220;2023-04-25T03:59:16;6.23;;;5.63;;
17259;SDS011;8746;49.230;9.220;2023-04-25T04:01:41;6.60;;;5.90;;
17259;SDS011;8746;49.230;9.220;2023-04-25T04:04:07;7.50;;;6.70;;
17259;SDS011;8746;49.230;9.220;2023-04-25T04:06:32;7.80;;;6.20;;
17259;SDS011;8746;49.230;9.220;2023-04-25T04:08:58;7.13;;;6.40;;
17259;SDS011;8746;49.230;9.220;2023-04-25T04:11:23;7.23;;;6.53;;
17259;SDS011;8746;49.230;9.220;2023-04-25T04:13:49;8.83;;;6.83;;
17259;SDS011;8746;49.230;9.220;2023-04-25T04:16:14;8.10;;;6.83;;
17259;SDS011;8746;49.230;9.220;2023-04-25T04:18:39;8.23;;;6.77;;
17259;SDS011;8746;49.230;9.220;2023-04-25T04:21:05;7.97;;;6.73;;
17259;SDS011;8746;49.230;9.220;2023-04-25T04:23:30;7.97;;;7.17;;
17259;SDS011;8746;49.230;9.220;2023-04-25T04:25:56;8.80;;;7.10;;
17259;SDS011;8746;49.230;9.220;2023-04-25T04:28:21;9.70;;;7.50;;
17259;SDS011;8746;49.230;9.220;2023-04-25T04:30:47;8.30;;;7.27;;
17259;SDS011;8746;49.230;9.220;2023-04-25T04:33:12;8.40;;;7.50;;
17259;SDS011;8746;49.230;9.220;2023-04-25T04:35:40;7.97;;;7.23;;
17259;SDS011;8746;49.230;9.220;2023-04-25T04:38:06;8.77;;;7.57;;
17259;SDS011;8746;49.230;9.220;2023-04-25T04:40:31;11.07;;;7.73;;
17259;SDS011;8746;49.230;9.220;2023-04-25T04:42:57;10.20;;;9.00;;
17259;SDS011;8746;49.230;9.220;2023-04-25T04:45:22;9.63;;;8.57;;
17259;SDS011;8746;49.230;9.220;2023-04-25T04:47:48;11.27;;;8.60;;
17259;SDS011;8746;49.230;9.220;2023-04-25T04:50:14;11.33;;;8.00;;
17259;SDS011;8746;49.230;9.220;2023-04-25T04:52:39;10.27;;;8.47;;
17259;SDS011;8746;49.230;9.220;2023-04-25T04:55:05;9.00;;;7.37;;
17259;SDS011;8746;49.230;9.220;2023-04-25T04:57:31;8.67;;;6.90;;
17259;SDS011;8746;49.230;9.220;2023-04-25T04:59:58;9.27;;;8.27;;
17259;SDS011;8746;49.230;9.220;2023-04-25T05:02:23;9.13;;;7.90;;
17259;SDS011;8746;49.230;9.220;2023-04-25T05:04:49;9.17;;;7.83;;
17259;SDS011;8746;49.230;9.220;2023-04-25T05:07:16;9.47;;;7.90;;
17259;SDS011;8746;49.230;9.220;2023-04-25T05:09:41;10.33;;;8.80;;
17259;SDS011;8746;49.230;9.220;2023-04-25T05:12:07;10.57;;;8.47;;
17259;SDS011;8746;49.230;9.220;2023-04-25T05:14:32;10.37;;;7.30;;
17259;SDS011;8746;49.230;9.220;2023-04-25T05:16:57;9.00;;;8.10;;
17259;SDS011;8746;49.230;9.220;2023-04-25T05:19:23;8.83;;;7.50;;
17259;SDS011;8746;49.230;9.220;2023-04-25T05:21:48;9.60;;;7.70;;
17259;SDS011;8746;49.230;9.220;2023-04-25T05:24:14;11.27;;;7.80;;
17259;SDS011;8746;49.230;9.220;2023-04-25T05:26:39;13.20;;;7.77;;
17259;SDS011;8746;49.230;9.220;2023-04-25T05:29:04;8.67;;;7.50;;
17259;SDS011;8746;49.230;9.220;2023-04-25T05:31:31;8.83;;;7.63;;
17259;SDS011;8746;49.230;9.220;2023-04-25T05:33:56;7.90;;;7.10;;
17259;SDS011;8746;49.230;9.220;2023-04-25T05:36:22;8.87;;;7.97;;
17259;SDS011;8746;49.230;9.220;2023-04-25T05:38:48;7.33;;;6.53;;
17259;SDS011;8746;49.230;9.220;2023-04-25T05:41:13;7.40;;;6.70;;
17259;SDS011;8746;49.230;9.220;2023-04-25T05:43:38;8.70;;;7.80;;
17259;SDS011;8746;49.230;9.220;2023-04-25T05:46:03;8.70;;;7.20;;
17259;SDS011;8746;49.230;9.220;2023-04-25T05:48:29;8.67;;;7.00;;
17259;SDS011;8746;49.230;9.220;2023-04-25T05:50:55;7.60;;;6.60;;
17259;SDS011;8746;49.230;9.220;2023-04-25T05:53:20;7.30;;;6.60;;
17259;SDS011;8746;49.230;9.220;2023-04-25T05:55:46;8.37;;;7.57;;
17259;SDS011;8746;49.230;9.220;2023-04-25T05:58:12;9.70;;;7.93;;
17259;SDS011;8746;49.230;9.220;2023-04-25T06:00:37;8.10;;;7.20;;
17259;SDS011;8746;49.230;9.220;2023-04-25T06:03:03;7.50;;;6.70;;
17259;SDS011;8746;49.230;9.220;2023-04-25T06:05:28;7.67;;;6.87;;
17259;SDS011;8746;49.230;9.220;2023-04-25T06:07:54;7.70;;;7.00;;
17259;SDS011;8746;49.230;9.220;2023-04-25T06:10:19;8.10;;;7.30;;
17259;SDS011;8746;49.230;9.220;2023-04-25T06:12:44;8.77;;;7.57;;
17259;SDS011;8746;49.230;9.220;2023-04-25T06:15:10;7.47;;;6.77;;
17259;SDS011;8746;49.230;9.220;2023-04-25T06:17:35;8.53;;;7.07;;
17259;SDS011;8746;49.230;9.220;2023-04-25T06:20:01;8.17;;;7.30;;
17259;SDS011;8746;49.230;9.220;2023-04-25T06:22:27;8.10;;;7.30;;
17259;SDS011;8746;49.230;9.220;2023-04-25T06:24:52;8.67;;;7.57;;
17259;SDS011;8746;49.230;9.220;2023-04-25T06:27:17;8.23;;;7.40;;
17259;SDS011;8746;49.230;9.220;2023-04-25T06:29:42;8.20;;;7.40;;
17259;SDS011;8746;49.230;9.220;2023-04-25T06:32:08;9.07;;;8.00;;
17259;SDS011;8746;49.230;9.220;2023-04-25T06:34:33;9.10;;;7.80;;
17259;SDS011;8746;49.230;9.220;2023-04-25T06:36:58;9.33;;;8.23;;
17259;SDS011;8746;49.230;9.220;2023-04-25T06:39:24;9.57;;;7.90;;
17259;SDS011;8746;49.230;9.220;2023-04-25T06:41:50;10.20;;;8.03;;
17259;SDS011;8746;49.230;9.220;2023-04-25T06:44:15;9.20;;;7.47;;
17259;SDS011;8746;49.230;9.220;2023-04-25T06:46:41;9.57;;;8.57;;
17259;SDS011;8746;49.230;9.220;2023-04-25T06:49:07;9.53;;;8.13;;
17259;SDS011;8746;49.230;9.220;2023-04-25T06:51:32;8.97;;;7.63;;
17259;SDS011;8746;49.230;9.220;2023-04-25T06:53:57;9.40;;;8.07;;
17259;SDS011;8746;49.230;9.220;2023-04-25T06:56:23;7.93;;;7.17;;
17259;SDS011;8746;49.230;9.220;2023-04-25T06:58:48;8.37;;;7.57;;
17259;SDS011;8746;49.230;9.220;2023-04-25T07:01:14;12.80;;;11.40;;
17259;SDS011;8746;49.230;9.220;2023-04-25T07:03:39;8.57;;;7.77;;
17259;SDS011;8746;49.230;9.220;2023-04-25T07:06:05;7.17;;;6.47;;
17259;SDS011;8746;49.230;9.220;2023-04-25T07:08:30;7.47;;;6.63;;
17259;SDS011;8746;49.230;9.220;2023-04-25T07:10:56;27.53;;;22.20;;
17259;SDS011;8746;49.230;9.220;2023-04-25T07:13:21;7.73;;;6.93;;
17259;SDS011;8746;49.230;9.220;2023-04-25T07:15:46;10.33;;;9.23;;
17259;SDS011;8746;49.230;9.220;2023-04-25T07:18:13;7.83;;;7.03;;
17259;SDS011;8746;49.230;9.220;2023-04-25T07:20:38;7.40;;;6.70;;
17259;SDS011;8746;49.230;9.220;2023-04-25T07:23:04;8.50;;;7.67;;
17259;SDS011;8746;49.230;9.220;2023-04-25T07:35:17;14.53;;;11.53;;
17259;SDS011;8746;49.230;9.220;2023-04-25T07:37:42;24.50;;;17.73;;
17259;SDS011;8746;49.230;9.220;2023-04-25T07:40:08;9.97;;;8.97;;
17259;SDS011;8746;49.230;9.220;2023-04-25T07:42:34;11.73;;;8.87;;
17259;SDS011;8746;49.230;9.220;2023-04-25T07:45:00;7.97;;;7.17;;
17259;SDS011;8746;49.230;9.220;2023-04-25T07:47:26;9.50;;;8.60;;
17259;SDS011;8746;49.230;9.220;2023-04-25T07:49:51;36.90;;;31.20;;
17259;SDS011;8746;49.230;9.220;2023-04-25T07:52:17;8.40;;;7.60;;
17259;SDS011;8746;49.230;9.220;2023-04-25T07:54:42;11.83;;;10.57;;
17259;SDS011;8746;49.230;9.220;2023-04-25T07:57:07;8.97;;;8.07;;
17259;SDS011;8746;49.230;9.220;2023-04-25T07:59:33;10.10;;;8.07;;
17259;SDS011;8746;49.230;9.220;2023-04-25T08:01:58;8.67;;;7.80;;
17259;SDS011;8746;49.230;9.220;2023-04-25T08:04:23;10.40;;;9.30;;
17259;SDS011;8746;49.230;9.220;2023-04-25T08:06:50;9.90;;;8.93;;
17259;SDS011;8746;49.230;9.220;2023-04-25T08:09:15;7.03;;;6.40;;
17259;SDS011;8746;49.230;9.220;2023-04-25T08:11:41;7.83;;;6.67;;
17259;SDS011;8746;49.230;9.220;2023-04-25T08:14:06;11.93;;;10.73;;
17259;SDS011;8746;49.230;9.220;2023-04-25T08:16:32;8.23;;;7.43;;
17259;SDS011;8746;49.230;9.220;2023-04-25T08:18:58;7.80;;;7.00;;
17259;SDS011;8746;49.230;9.220;2023-04-25T08:21:24;7.83;;;7.13;;
17259;SDS011;8746;49.230;9.220;2023-04-25T08:23:51;8.53;;;7.00;;
17259;SDS011;8746;49.230;9.220;2023-04-25T08:26:17;7.63;;;6.93;;
17259;SDS011;8746;49.230;9.220;2023-04-25T08:28:42;7.90;;;7.10;;
17259;SDS011;8746;49.230;9.220;2023-04-25T08:31:07;7.50;;;6.73;;
17259;SDS011;8746;49.230;9.220;2023-04-25T08:33:32;14.40;;;12.77;;
17259;SDS011;8746;49.230;9.220;2023-04-25T08:35:58;13.07;;;10.40;;
17259;SDS011;8746;49.230;9.220;2023-04-25T08:38:24;8.87;;;7.33;;
17259;SDS011;8746;49.230;9.220;2023-04-25T08:40:49;7.83;;;7.03;;
17259;SDS011;8746;49.230;9.220;2023-04-25T08:43:19;8.40;;;7.50;;
17259;SDS011;8746;49.230;9.220;2023-04-25T08:45:45;5.03;;;4.53;;
17259;SDS011;8746;49.230;9.220;2023-04-25T08:48:12;3.97;;;3.67;;
17259;SDS011;8746;49.230;9.220;2023-04-25T08:50:57;4.37;;;3.97;;
17259;SDS011;8746;49.230;9.220;2023-04-25T08:53:31;5.73;;;4.67;;
17259;SDS011;8746;49.230;9.220;2023-04-25T08:55:58;5.43;;;4.60;;
17259;SDS011;8746;49.230;9.220;2023-04-25T08:58:24;5.57;;;5.07;;
17259;SDS011;8746;49.230;9.220;2023-04-25T09:00:51;6.37;;;4.80;;
17259;SDS011;8746;49.230;9.220;2023-04-25T09:03:17;6.10;;;5.50;;
17259;SDS011;8746;49.230;9.220;2023-04-25T09:05:42;6.37;;;5.77;;
17259;SDS011;8746;49.230;9.220;2023-04-25T09:08:08;7.20;;;6.17;;
17259;SDS011;8746;49.230;9.220;2023-04-25T09:10:34;8.30;;;6.83;;
17259;SDS011;8746;49.230;9.220;2023-04-25T09:13:03;6.70;;;5.77;;
17259;SDS011;8746;49.230;9.220;2023-04-25T09:15:34;8.43;;;6.47;;
17259;SDS011;8746;49.230;9.220;2023-04-25T09:18:12;13.27;;;9.57;;
17259;SDS011;8746;49.230;9.220;2023-04-25T09:20:43;7.27;;;6.57;;
17259;SDS011;8746;49.230;9.220;2023-04-25T09:23:09;7.43;;;6.73;;
17259;SDS011;8746;49.230;9.220;2023-04-25T09:25:37;7.97;;;6.80;;
17259;SDS011;8746;49.230;9.220;2023-04-25T09:28:08;7.93;;;6.53;;
17259;SDS011;8746;49.230;9.220;2023-04-25T09:30:35;7.33;;;6.63;;
17259;SDS011;8746;49.230;9.220;2023-04-25T09:33:04;8.10;;;7.10;;
17259;SDS011;8746;49.230;9.220;2023-04-25T09:35:34;7.53;;;6.83;;
17259;SDS011;8746;49.230;9.220;2023-04-25T09:38:01;7.37;;;6.67;;
17259;SDS011;8746;49.230;9.220;2023-04-25T09:40:26;8.40;;;6.73;;
17259;SDS011;8746;49.230;9.220;2023-04-25T09:42:51;9.50;;;6.20;;
17259;SDS011;8746;49.230;9.220;2023-04-25T09:45:17;7.67;;;6.80;;
17259;SDS011;8746;49.230;9.220;2023-04-25T09:47:42;7.07;;;6.37;;
17259;SDS011;8746;49.230;9.220;2023-04-25T09:50:14;8.80;;;6.00;;
17259;SDS011;8746;49.230;9.220;2023-04-25T09:52:41;6.00;;;5.30;;
17259;SDS011;8746;49.230;9.220;2023-04-25T09:55:06;6.23;;;5.40;;
17259;SDS011;8746;49.230;9.220;2023-04-25T09:57:32;6.23;;;5.67;;
17259;SDS011;8746;49.230;9.220;2023-04-25T09:59:58;5.07;;;4.57;;
17259;SDS011;8746;49.230;9.220;2023-04-25T10:02:26;5.20;;;4.70;;
17259;SDS011;8746;49.230;9.220;2023-04-25T10:04:52;5.80;;;4.20;;
17259;SDS011;8746;49.230;9.220;2023-04-25T10:07:22;4.63;;;4.13;;
17259;SDS011;8746;49.230;9.220;2023-04-25T10:09:52;5.80;;;3.90;;
17259;SDS011;8746;49.230;9.220;2023-04-25T10:12:24;5.00;;;3.20;;
17259;SDS011;8746;49.230;9.220;2023-04-25T10:14:50;4.37;;;3.47;;
17259;SDS011;8746;49.230;9.220;2023-04-25T10:17:16;4.73;;;4.00;;
17259;SDS011;8746;49.230;9.220;2023-04-25T10:19:42;3.40;;;2.57;;
17259;SDS011;8746;49.230;9.220;2023-04-25T10:22:11;6.40;;;3.40;;
17259;SDS011;8746;49.230;9.220;2023-04-25T10:24:59;3.47;;;3.17;;
17259;SDS011;8746;49.230;9.220;2023-04-25T10:27:27;3.13;;;2.80;;
17259;SDS011;8746;49.230;9.220;2023-04-25T10:30:07;4.80;;;2.70;;
17259;SDS011;8746;49.230;9.220;2023-04-25T10:32:36;3.97;;;2.80;;
17259;SDS011;8746;49.230;9.220;2023-04-25T10:37:56;3.83;;;2.40;;
17259;SDS011;8746;49.230;9.220;2023-04-25T10:40:21;4.73;;;2.53;;
17259;SDS011;8746;49.230;9.220;2023-04-25T10:42:47;3.47;;;2.20;;
17259;SDS011;8746;49.230;9.220;2023-04-25T10:45:13;5.13;;;3.03;;
17259;SDS011;8746;49.230;9.220;2023-04-25T10:47:43;5.90;;;3.30;;
17259;SDS011;8746;49.230;9.220;2023-04-25T10:50:09;5.57;;;4.20;;
17259;SDS011;8746;49.230;9.220;2023-04-25T10:52:36;4.47;;;2.90;;
17259;SDS011;8746;49.230;9.220;2023-04-25T10:55:04;3.87;;;2.80;;
17259;SDS011;8746;49.230;9.220;2023-04-25T11:00:00;3.97;;;3.13;;
17259;SDS011;8746;49.230;9.220;2023-04-25T11:02:31;3.33;;;2.83;;
17259;SDS011;8746;49.230;9.220;2023-04-25T11:05:01;5.73;;;3.23;;
17259;SDS011;8746;49.230;9.220;2023-04-25T11:07:33;4.33;;;3.20;;
17259;SDS011;8746;49.230;9.220;2023-04-25T11:10:15;4.27;;;3.27;;
17259;SDS011;8746;49.230;9.220;2023-04-25T11:12:41;5.50;;;3.00;;
17259;SDS011;8746;49.230;9.220;2023-04-25T11:15:06;5.13;;;3.00;;
17259;SDS011;8746;49.230;9.220;2023-04-25T11:17:33;4.57;;;3.20;;
17259;SDS011;8746;49.230;9.220;2023-04-25T11:19:59;3.80;;;2.70;;
17259;SDS011;8746;49.230;9.220;2023-04-25T11:22:25;3.53;;;2.80;;
17259;SDS011;8746;49.230;9.220;2023-04-25T11:24:52;3.43;;;2.70;;
17259;SDS011;8746;49.230;9.220;2023-04-25T11:27:17;3.27;;;2.80;;
17259;SDS011;8746;49.230;9.220;2023-04-25T11:29:43;3.23;;;2.90;;
17259;SDS011;8746;49.230;9.220;2023-04-25T11:32:08;3.30;;;3.00;;
17259;SDS011;8746;49.230;9.220;2023-04-25T11:34:33;3.90;;;2.70;;
17259;SDS011;8746;49.230;9.220;2023-04-25T11:36:59;3.57;;;2.97;;
17259;SDS011;8746;49.230;9.220;2023-04-25T11:39:27;3.50;;;3.10;;
17259;SDS011;8746;49.230;9.220;2023-04-25T11:41:53;4.27;;;3.10;;
17259;SDS011;8746;49.230;9.220;2023-04-25T11:44:21;4.90;;;3.13;;
17259;SDS011;8746;49.230;9.220;2023-04-25T11:46:47;3.33;;;3.00;;
17259;SDS011;8746;49.230;9.220;2023-04-25T11:49:12;4.27;;;3.70;;
17259;SDS011;8746;49.230;9.220;2023-04-25T11:51:39;5.00;;;3.80;;
17259;SDS011;8746;49.230;9.220;2023-04-25T11:54:05;4.93;;;3.90;;
17259;SDS011;8746;49.230;9.220;2023-04-25T11:56:30;4.10;;;2.67;;
17259;SDS011;8746;49.230;9.220;2023-04-25T11:58:57;3.70;;;2.60;;
17259;SDS011;8746;49.230;9.220;2023-04-25T12:03:55;2.90;;;2.20;;
17259;SDS011;8746;49.230;9.220;2023-04-25T12:06:21;4.83;;;2.90;;
17259;SDS011;8746;49.230;9.220;2023-04-25T12:09:01;6.60;;;3.30;;
17259;SDS011;8746;49.230;9.220;2023-04-25T12:11:30;4.17;;;3.10;;
17259;SDS011;8746;49.230;9.220;2023-04-25T12:14:02;6.27;;;3.13;;
17259;SDS011;8746;49.230;9.220;2023-04-25T12:16:29;5.70;;;3.60;;
17259;SDS011;8746;49.230;9.220;2023-04-25T12:18:55;4.30;;;3.20;;
17259;SDS011;8746;49.230;9.220;2023-04-25T12:21:21;5.07;;;3.87;;
17259;SDS011;8746;49.230;9.220;2023-04-25T12:23:47;7.47;;;3.80;;
17259;SDS011;8746;49.230;9.220;2023-04-25T12:26:12;6.17;;;3.40;;
17259;SDS011;8746;49.230;9.220;2023-04-25T12:28:37;6.57;;;3.80;;
17259;SDS011;8746;49.230;9.220;2023-04-25T12:31:03;4.37;;;3.27;;
17259;SDS011;8746;49.230;9.220;2023-04-25T12:33:31;4.40;;;3.23;;
17259;SDS011;8746;49.230;9.220;2023-04-25T12:35:58;7.03;;;3.93;;
17259;SDS011;8746;49.230;9.220;2023-04-25T12:38:25;4.97;;;3.63;;
17259;SDS011;8746;49.230;9.220;2023-04-25T12:40:53;5.27;;;3.43;;
17259;SDS011;8746;49.230;9.220;2023-04-25T12:43:18;5.27;;;3.60;;
17259;SDS011;8746;49.230;9.220;2023-04-25T12:45:45;6.00;;;3.77;;
17259;SDS011;8746;49.230;9.220;2023-04-25T12:48:13;4.10;;;3.17;;
17259;SDS011;8746;49.230;9.220;2023-04-25T12:50:39;4.70;;;3.60;;
17259;SDS011;8746;49.230;9.220;2023-04-25T12:53:04;4.53;;;3.33;;
17259;SDS011;8746;49.230;9.220;2023-04-25T12:55:29;5.47;;;3.53;;
17259;SDS011;8746;49.230;9.220;2023-04-25T12:57:55;5.43;;;3.77;;
17259;SDS011;8746;49.230;9.220;2023-04-25T13:00:20;5.83;;;4.13;;
17259;SDS011;8746;49.230;9.220;2023-04-25T13:02:45;6.73;;;4.63;;
17259;SDS011;8746;49.230;9.220;2023-04-25T13:05:14;6.97;;;4.40;;
17259;SDS011;8746;49.230;9.220;2023-04-25T13:07:39;6.43;;;3.60;;
17259;SDS011;8746;49.230;9.220;2023-04-25T13:10:06;5.60;;;3.83;;
17259;SDS011;8746;49.230;9.220;2023-04-25T13:12:32;3.90;;;3.47;;
17259;SDS011;8746;49.230;9.220;2023-04-25T13:14:58;4.33;;;3.10;;
17259;SDS011;8746;49.230;9.220;2023-04-25T13:17:23;5.87;;;3.30;;
17259;SDS011;8746;49.230;9.220;2023-04-25T13:19:49;3.73;;;2.80;;
17259;SDS011;8746;49.230;9.220;2023-04-25T13:22:14;2.87;;;2.40;;
17259;SDS011;8746;49.230;9.220;2023-04-25T13:24:41;3.80;;;2.67;;
17259;SDS011;8746;49.230;9.220;2023-04-25T13:27:07;4.83;;;3.10;;
17259;SDS011;8746;49.230;9.220;2023-04-25T13:29:32;4.33;;;2.77;;
17259;SDS011;8746;49.230;9.220;2023-04-25T13:31:59;3.03;;;2.60;;
17259;SDS011;8746;49.230;9.220;2023-04-25T13:34:25;3.80;;;2.60;;
17259;SDS011;8746;49.230;9.220;2023-04-25T13:36:50;3.33;;;2.70;;
17259;SDS011;8746;49.230;9.220;2023-04-25T13:39:16;3.23;;;2.53;;
17259;SDS011;8746;49.230;9.220;2023-04-25T13:41:41;4.00;;;2.50;;
17259;SDS011;8746;49.230;9.220;2023-04-25T13:44:06;2.10;;;1.90;;
17259;SDS011;8746;49.230;9.220;2023-04-25T13:46:31;1.77;;;1.60;;
17259;SDS011;8746;49.230;9.220;2023-04-25T13:48:57;1.90;;;1.80;;
17259;SDS011;8746;49.230;9.220;2023-04-25T13:51:22;1.73;;;1.63;;
17259;SDS011;8746;49.230;9.220;2023-04-25T13:53:47;2.60;;;1.90;;
17259;SDS011;8746;49.230;9.220;2023-04-25T13:56:13;3.73;;;2.00;;
17259;SDS011;8746;49.230;9.220;2023-04-25T13:58:38;2.90;;;2.00;;
17259;SDS011;8746;49.230;9.220;2023-04-25T14:01:04;2.37;;;2.13;;
17259;SDS011;8746;49.230;9.220;2023-04-25T14:03:29;2.37;;;2.17;;
17259;SDS011;8746;49.230;9.220;2023-04-25T14:05:55;4.17;;;2.10;;
17259;SDS011;8746;49.230;9.220;2023-04-25T14:08:20;2.50;;;2.20;;
17259;SDS011;8746;49.230;9.220;2023-04-25T14:10:46;3.00;;;2.03;;
17259;SDS011;8746;49.230;9.220;2023-04-25T14:13:11;1.92;;;1.83;;
17259;SDS011;8746;49.230;9.220;2023-04-25T14:15:36;3.55;;;1.95;;
17259;SDS011;8746;49.230;9.220;2023-04-25T14:18:02;4.20;;;2.05;;
17259;SDS011;8746;49.230;9.220;2023-04-25T14:20:28;2.17;;;2.03;;
17259;SDS011;8746;49.230;9.220;2023-04-25T14:22:54;2.08;;;1.95;;
17259;SDS011;8746;49.230;9.220;2023-04-25T14:25:21;3.25;;;2.10;;
17259;SDS011;8746;49.230;9.220;2023-04-25T14:27:47;3.87;;;1.93;;
17259;SDS011;8746;49.230;9.220;2023-04-25T14:30:15;2.47;;;2.10;;
17259;SDS011;8746;49.230;9.220;2023-04-25T14:32:44;4.63;;;1.93;;
17259;SDS011;8746;49.230;9.220;2023-04-25T14:35:10;2.50;;;1.90;;
17259;SDS011;8746;49.230;9.220;2023-04-25T14:37:36;2.35;;;2.10;;
17259;SDS011;8746;49.230;9.220;2023-04-25T14:40:01;2.58;;;1.90;;
17259;SDS011;8746;49.230;9.220;2023-04-25T14:42:26;2.70;;;1.85;;
17259;SDS011;8746;49.230;9.220;2023-04-25T14:44:52;2.07;;;1.70;;
17259;SDS011;8746;49.230;9.220;2023-04-25T14:47:17;2.43;;;2.23;;
17259;SDS011;8746;49.230;9.220;2023-04-25T14:49:43;2.67;;;2.27;;
17259;SDS011;8746;49.230;9.220;2023-04-25T14:52:09;3.33;;;2.50;;
17259;SDS011;8746;49.230;9.220;2023-04-25T14:54:34;4.53;;;2.30;;
17259;SDS011;8746;49.230;9.220;2023-04-25T14:57:00;3.33;;;2.27;;
17259;SDS011;8746;49.230;9.220;2023-04-25T14:59:26;2.55;;;2.25;;
17259;SDS011;8746;49.230;9.220;2023-04-25T15:01:52;2.55;;;2.17;;
17259;SDS011;8746;49.230;9.220;2023-04-25T15:04:18;2.40;;;2.20;;
17259;SDS011;8746;49.230;9.220;2023-04-25T15:06:43;2.73;;;2.40;;
17259;SDS011;8746;49.230;9.220;2023-04-25T15:09:08;3.40;;;2.37;;
17259;SDS011;8746;49.230;9.220;2023-04-25T15:11:35;5.83;;;2.50;;